C04 weather

Oceana County Airport
Hart/Shelby, Michigan, United States

Public forecast

Using degrees Fahrenheit for public forecast. Weather courtesy of forecast.io.

METAR (pilot weather report)

Closest report is Fremont Municipal Airport, 19.0 nm (35.1 km) SE. Retrieved 2019/09/23 10:35 UTC (0 seconds ago):

KFFX 231035Z AUTO 28006KT 10SM SCT007 SCT037 BKN043 17/16 A2984 RMK AO2 T01650160

TAF (pilot weather forecast)

Closest forecast is Muskegon County Airport, 28.6 nm (53.0 km) S. Retrieved 2019/09/23 06:33 UTC (4 hours ago):

TAF KMKG 230530Z 2306/2406 24010KT P6SM VCSH OVC010 FM230800 28010KT 4SM BR OVC035 FM231200 28011KT P6SM OVC035 FM231400 29014G21KT P6SM BKN035 FM240000 28010KT P6SM SKC